Ogden, UT

10:20 AM MDT on April 28, 2017 (GMT -0600)
Ogden-Hinckley | | Change Station

Elev 4469 ft 41.20 °N, 112.01 °W | Updated 11 minutes ago

Overcast
Overcast
37 °F
Feels Like 30 °F
N
10
Wind Variable Wind from North

Today
High -- | Low -- °F
--% Chance of Precip.
Yesterday
High -- | Low -- °F
Precip. -- in
Pressure 29.90 in
Visibility 9.0 miles
Clouds Mostly Cloudy 2300 ft
Overcast 3200 ft
Windchill 30 °F
Dew Point 29 °F
Humidity 73%
Rainfall 0.00 in
Snow Depth Not available.
6:29 AM 8:22 PM
Waxing Crescent, 7% visible
SPECI KOGD 281609Z 36009KT 9SM BKN023 OVC032 03/M02 A2990 RMK AO2 T00281017
Pressure 29.90 in
Visibility 9.0 miles
Clouds Mostly Cloudy 2300 ft
Overcast 3200 ft
Windchill 30 °F
Dew Point 29 °F
Humidity 73%
Rainfall 0.00 in
Snow Depth Not available.
6:29 AM 8:22 PM
Waxing Crescent, 7% visible
SPECI KOGD 281609Z 36009KT 9SM BKN023 OVC032 03/M02 A2990 RMK AO2 T00281017

Get Severe Weather Alerts

Thanks for signing up!

Be on the lookout for a verification email in your inbox.

You'll start receiving the daily forecast at 8 AM.

×

10-Day Weather Forecast

Almanac

Astronomy

Apr. 28, 2017 Rise Set
Actual Time
Civil Twilight
Nautical Twilight
Astronomical Twilight
Moon
Length of Visible Light
Length of Day
Tomorrow will be .
, % of the Moon is Illuminated

Today's Extremes

State Highs State Lows

Community

WunderPhotos

WunderBlog® & News

Nearby

Air Quality

  Air Quality AQ Index Pollutant
Not available.

Snow Depth

Station Depth Elevation

Earthquake Activity

City Distance Mag. Time & Date
Minimum magnitude displayed is 2.5.

Coastal Water Temperatures

Place Temperature

Stations

Nearby Weather Stations

Station Location Temp. Windchill Dew Point Humidity Wind Precip. Elev Updated Type
                   

Watches & Warnings

There are currently no watches in effect.